sensor_id;sensor_type;location;lat;lon;timestamp;P1;durP1;ratioP1;P2;durP2;ratioP2
74532;SDS011;63012;51.096;-115.366;2022-09-27T00:00:51;4.80;;;0.90;;
74532;SDS011;63012;51.096;-115.366;2022-09-27T00:04:26;3.90;;;1.00;;
74532;SDS011;63012;51.096;-115.366;2022-09-27T00:07:34;4.80;;;0.90;;
74532;SDS011;63012;51.096;-115.366;2022-09-27T00:11:02;2.60;;;0.50;;
74532;SDS011;63012;51.096;-115.366;2022-09-27T00:17:21;4.00;;;0.90;;
74532;SDS011;63012;51.096;-115.366;2022-09-27T00:27:29;3.70;;;1.10;;
74532;SDS011;63012;51.096;-115.366;2022-09-27T00:30:59;5.00;;;0.90;;
74532;SDS011;63012;51.096;-115.366;2022-09-27T00:56:21;4.50;;;1.00;;
74532;SDS011;63012;51.096;-115.366;2022-09-27T00:59:46;4.10;;;0.90;;
74532;SDS011;63012;51.096;-115.366;2022-09-27T01:03:36;3.40;;;0.80;;
74532;SDS011;63012;51.096;-115.366;2022-09-27T01:07:21;3.40;;;0.90;;
74532;SDS011;63012;51.096;-115.366;2022-09-27T01:49:26;5.80;;;0.80;;
74532;SDS011;63012;51.096;-115.366;2022-09-27T12:22:32;6.80;;;1.80;;
74532;SDS011;63012;51.096;-115.366;2022-09-27T15:15:29;9.50;;;1.50;;
74532;SDS011;63012;51.096;-115.366;2022-09-27T15:54:06;6.60;;;2.00;;
74532;SDS011;63012;51.096;-115.366;2022-09-27T15:57:55;6.70;;;2.20;;
74532;SDS011;63012;51.096;-115.366;2022-09-27T17:24:33;9.90;;;2.30;;
74532;SDS011;63012;51.096;-115.366;2022-09-27T18:31:15;5.00;;;1.90;;
74532;SDS011;63012;51.096;-115.366;2022-09-27T18:38:38;5.50;;;2.20;;
74532;SDS011;63012;51.096;-115.366;2022-09-27T18:42:08;5.40;;;2.10;;
74532;SDS011;63012;51.096;-115.366;2022-09-27T18:51:52;6.60;;;2.20;;
74532;SDS011;63012;51.096;-115.366;2022-09-27T18:55:29;6.40;;;1.80;;
74532;SDS011;63012;51.096;-115.366;2022-09-27T18:58:44;7.10;;;2.40;;
74532;SDS011;63012;51.096;-115.366;2022-09-27T19:06:08;6.00;;;2.20;;
74532;SDS011;63012;51.096;-115.366;2022-09-27T19:09:30;7.50;;;2.50;;
74532;SDS011;63012;51.096;-115.366;2022-09-27T19:12:58;6.30;;;2.10;;
74532;SDS011;63012;51.096;-115.366;2022-09-27T19:19:39;7.60;;;2.40;;
74532;SDS011;63012;51.096;-115.366;2022-09-27T19:22:48;6.70;;;2.50;;
74532;SDS011;63012;51.096;-115.366;2022-09-27T19:25:46;6.60;;;2.60;;
74532;SDS011;63012;51.096;-115.366;2022-09-27T19:31:53;7.20;;;2.90;;
74532;SDS011;63012;51.096;-115.366;2022-09-27T19:34:54;7.20;;;2.80;;
74532;SDS011;63012;51.096;-115.366;2022-09-27T19:41:23;7.70;;;3.20;;
74532;SDS011;63012;51.096;-115.366;2022-09-27T19:44:09;7.40;;;3.20;;
74532;SDS011;63012;51.096;-115.366;2022-09-27T19:46:47;8.60;;;3.50;;
74532;SDS011;63012;51.096;-115.366;2022-09-27T19:49:57;7.80;;;4.00;;
74532;SDS011;63012;51.096;-115.366;2022-09-27T19:56:16;8.90;;;4.10;;
74532;SDS011;63012;51.096;-115.366;2022-09-27T19:58:44;8.10;;;3.80;;
74532;SDS011;63012;51.096;-115.366;2022-09-27T20:01:58;9.80;;;4.10;;
74532;SDS011;63012;51.096;-115.366;2022-09-27T20:04:25;8.80;;;4.50;;
74532;SDS011;63012;51.096;-115.366;2022-09-27T20:07:16;7.90;;;4.20;;
74532;SDS011;63012;51.096;-115.366;2022-09-27T20:10:03;8.40;;;3.60;;
74532;SDS011;63012;51.096;-115.366;2022-09-27T20:12:33;8.80;;;4.40;;
74532;SDS011;63012;51.096;-115.366;2022-09-27T20:15:16;8.90;;;3.80;;
74532;SDS011;63012;51.096;-115.366;2022-09-27T20:17:54;9.80;;;4.00;;
74532;SDS011;63012;51.096;-115.366;2022-09-27T20:20:35;8.80;;;4.00;;
74532;SDS011;63012;51.096;-115.366;2022-09-27T20:23:08;8.90;;;4.60;;
74532;SDS011;63012;51.096;-115.366;2022-09-27T20:26:19;8.50;;;4.60;;
74532;SDS011;63012;51.096;-115.366;2022-09-27T20:31:38;8.80;;;4.20;;
74532;SDS011;63012;51.096;-115.366;2022-09-27T20:34:19;8.50;;;4.40;;
74532;SDS011;63012;51.096;-115.366;2022-09-27T20:36:58;10.90;;;4.50;;
74532;SDS011;63012;51.096;-115.366;2022-09-27T20:39:28;9.10;;;4.50;;
74532;SDS011;63012;51.096;-115.366;2022-09-27T20:42:13;8.40;;;4.10;;
74532;SDS011;63012;51.096;-115.366;2022-09-27T20:44:47;8.10;;;4.00;;
74532;SDS011;63012;51.096;-115.366;2022-09-27T20:47:14;8.40;;;3.90;;
74532;SDS011;63012;51.096;-115.366;2022-09-27T20:49:41;9.00;;;4.40;;
74532;SDS011;63012;51.096;-115.366;2022-09-27T20:52:08;8.60;;;3.80;;
74532;SDS011;63012;51.096;-115.366;2022-09-27T20:54:39;9.90;;;3.80;;
74532;SDS011;63012;51.096;-115.366;2022-09-27T20:57:06;8.00;;;3.50;;
74532;SDS011;63012;51.096;-115.366;2022-09-27T20:59:37;7.90;;;3.40;;
74532;SDS011;63012;51.096;-115.366;2022-09-27T21:02:04;8.00;;;3.20;;
74532;SDS011;63012;51.096;-115.366;2022-09-27T21:04:34;7.40;;;3.60;;
74532;SDS011;63012;51.096;-115.366;2022-09-27T21:07:01;8.10;;;3.00;;
74532;SDS011;63012;51.096;-115.366;2022-09-27T21:09:29;7.20;;;2.80;;
74532;SDS011;63012;51.096;-115.366;2022-09-27T21:12:00;8.30;;;2.40;;
74532;SDS011;63012;51.096;-115.366;2022-09-27T21:14:28;6.90;;;2.70;;
74532;SDS011;63012;51.096;-115.366;2022-09-27T21:16:59;7.70;;;2.30;;
74532;SDS011;63012;51.096;-115.366;2022-09-27T21:19:30;6.90;;;2.40;;
74532;SDS011;63012;51.096;-115.366;2022-09-27T21:22:02;7.40;;;2.40;;
74532;SDS011;63012;51.096;-115.366;2022-09-27T21:24:30;6.40;;;2.40;;
74532;SDS011;63012;51.096;-115.366;2022-09-27T21:27:29;7.30;;;2.80;;
74532;SDS011;63012;51.096;-115.366;2022-09-27T21:30:16;7.20;;;2.70;;
74532;SDS011;63012;51.096;-115.366;2022-09-27T21:32:46;7.80;;;2.70;;
74532;SDS011;63012;51.096;-115.366;2022-09-27T21:35:27;6.20;;;2.40;;
74532;SDS011;63012;51.096;-115.366;2022-09-27T21:38:03;8.00;;;2.70;;
74532;SDS011;63012;51.096;-115.366;2022-09-27T21:40:30;6.60;;;2.60;;
74532;SDS011;63012;51.096;-115.366;2022-09-27T21:46:18;6.10;;;2.40;;
74532;SDS011;63012;51.096;-115.366;2022-09-27T21:51:41;5.80;;;2.30;;
74532;SDS011;63012;51.096;-115.366;2022-09-27T21:54:25;7.20;;;2.30;;
74532;SDS011;63012;51.096;-115.366;2022-09-27T21:57:37;6.40;;;2.40;;
74532;SDS011;63012;51.096;-115.366;2022-09-27T22:00:28;6.80;;;2.70;;
74532;SDS011;63012;51.096;-115.366;2022-09-27T22:03:07;7.90;;;2.60;;
74532;SDS011;63012;51.096;-115.366;2022-09-27T22:06:08;6.30;;;2.30;;
74532;SDS011;63012;51.096;-115.366;2022-09-27T22:08:37;6.50;;;2.00;;
74532;SDS011;63012;51.096;-115.366;2022-09-27T22:11:18;7.30;;;2.40;;
74532;SDS011;63012;51.096;-115.366;2022-09-27T22:15:06;5.90;;;2.00;;
74532;SDS011;63012;51.096;-115.366;2022-09-27T22:21:13;6.70;;;1.90;;
74532;SDS011;63012;51.096;-115.366;2022-09-27T22:24:14;6.00;;;2.30;;
74532;SDS011;63012;51.096;-115.366;2022-09-27T22:27:21;6.20;;;2.10;;
74532;SDS011;63012;51.096;-115.366;2022-09-27T22:29:54;6.60;;;2.10;;
74532;SDS011;63012;51.096;-115.366;2022-09-27T22:35:52;6.60;;;2.00;;
74532;SDS011;63012;51.096;-115.366;2022-09-27T22:39:00;6.70;;;1.90;;
74532;SDS011;63012;51.096;-115.366;2022-09-27T22:41:51;6.10;;;1.90;;
74532;SDS011;63012;51.096;-115.366;2022-09-27T22:44:18;6.30;;;2.00;;
74532;SDS011;63012;51.096;-115.366;2022-09-27T22:46:48;6.60;;;2.10;;
74532;SDS011;63012;51.096;-115.366;2022-09-27T22:49:38;5.60;;;1.80;;
74532;SDS011;63012;51.096;-115.366;2022-09-27T22:52:19;7.00;;;1.90;;
74532;SDS011;63012;51.096;-115.366;2022-09-27T22:54:53;5.60;;;1.60;;
74532;SDS011;63012;51.096;-115.366;2022-09-27T22:57:40;6.20;;;1.90;;
74532;SDS011;63012;51.096;-115.366;2022-09-27T23:00:40;7.40;;;1.60;;
74532;SDS011;63012;51.096;-115.366;2022-09-27T23:03:10;5.50;;;1.80;;
74532;SDS011;63012;51.096;-115.366;2022-09-27T23:06:01;5.70;;;1.60;;
74532;SDS011;63012;51.096;-115.366;2022-09-27T23:08:56;7.50;;;1.80;;
74532;SDS011;63012;51.096;-115.366;2022-09-27T23:11:45;5.30;;;1.60;;
74532;SDS011;63012;51.096;-115.366;2022-09-27T23:14:18;5.60;;;1.50;;
74532;SDS011;63012;51.096;-115.366;2022-09-27T23:17:14;5.50;;;1.60;;
74532;SDS011;63012;51.096;-115.366;2022-09-27T23:20:14;5.60;;;1.70;;
74532;SDS011;63012;51.096;-115.366;2022-09-27T23:23:00;5.50;;;1.30;;
74532;SDS011;63012;51.096;-115.366;2022-09-27T23:29:05;6.70;;;1.70;;
74532;SDS011;63012;51.096;-115.366;2022-09-27T23:31:56;5.10;;;1.40;;
74532;SDS011;63012;51.096;-115.366;2022-09-27T23:35:05;5.30;;;1.90;;
74532;SDS011;63012;51.096;-115.366;2022-09-27T23:37:39;5.90;;;1.70;;
74532;SDS011;63012;51.096;-115.366;2022-09-27T23:40:55;5.00;;;1.60;;
74532;SDS011;63012;51.096;-115.366;2022-09-27T23:46:15;5.40;;;1.30;;
74532;SDS011;63012;51.096;-115.366;2022-09-27T23:52:19;5.80;;;1.30;;
